Hlavní strana
METAR-TAF:

METAR-TAF

Letiště :

Letiště Rijeka

Rijeka, Chorvatsko

zeměpisná šířka: 45-13N, zeměpisná délka: 014-35E, výška: 85 m

Aktuální stav počasí

Zpráva byla vytvořena před 46 minutami, v 06:30 UTC
vítr z různých směrů 2 kt
Teplota 25°C
Vlhkost vzduchu 65%
Tlak 1017 hPa
Viditelnost 10 km a více
Žádná oblačnost pod 1500 m, nevyskytují se cumulonimby.

METAR: LDRI 190630Z VRB02KT CAVOK 25/18 Q1017

Čas: 09:16 (07:16 UTC)

Předpověď počasí

Zpráva byla vytvořena před 1 hodinou a 51 minutami, v 05:25 UTC
Předpověď platná od 19 v 06 UTC do 20 v 06 UTC
vítr z různých směrů 2 kt
Viditelnost 10 km a více
Žádná oblačnost pod 1500 m, nevyskytují se cumulonimby.
Pravděpodobnost 40% :
Dočasný
od 19 v 10 UTC do 19 v 16 UTC
Západoseverozápadní vítr 8 kt

TAF: LDRI 190525Z 1906/2006 VRB02KT CAVOK TX31/1913Z TN22/2003Z PROB40 TEMPO 1910/1916 30008KT

Stav a předpovědi počasí z více než 4 000 letišť (zprávy METAR a TAF).

Červené a žluté tečky na mapě představují dostupné meteorologické stanice.

Když kurzor umístíte na tečku, zobrazí se název stanice.

Pak kliknutím zobrazíte stav a předpověď počasí.

Chcete-li změnit mapu, kliknutím na zelené tlačítko se znaménkem +mapu přiblížíte, kliknutím na zelené tlačítko se znaménkem – mapu oddálíte a kliknutím na zelené šipky přejdete na sousední mapy.


METAR-TAF: